createdAt,value
2022-09-28T00:01:22.711Z,99.90
2022-09-28T00:03:51.792Z,99.90
2022-09-28T00:06:27.226Z,99.90
2022-09-28T00:08:54.871Z,99.90
2022-09-28T00:11:23.211Z,99.90
2022-09-28T00:13:52.635Z,99.90
2022-09-28T00:16:22.639Z,99.90
2022-09-28T00:18:51.330Z,99.90
2022-09-28T00:21:23.572Z,99.90
2022-09-28T00:24:15.279Z,99.90
2022-09-28T00:27:01.708Z,99.90
2022-09-28T00:29:33.164Z,99.90
2022-09-28T00:32:02.617Z,99.90
2022-09-28T00:34:33.008Z,99.90
2022-09-28T00:37:00.781Z,99.90
2022-09-28T00:39:28.184Z,99.90
2022-09-28T00:41:56.153Z,99.90
2022-09-28T00:44:35.937Z,99.90
2022-09-28T00:47:52.098Z,99.90
2022-09-28T00:50:39.711Z,99.90
2022-09-28T00:53:14.754Z,99.90
2022-09-28T00:55:57.003Z,99.90
2022-09-28T00:58:38.527Z,99.90
2022-09-28T01:01:05.932Z,99.90
2022-09-28T01:03:33.788Z,99.90
2022-09-28T01:06:03.683Z,99.90
2022-09-28T01:08:32.846Z,99.90
2022-09-28T01:11:00.593Z,99.90
2022-09-28T01:13:28.402Z,99.90
2022-09-28T01:16:42.856Z,99.90
2022-09-28T01:20:20.560Z,99.90
2022-09-28T01:23:26.625Z,99.90
2022-09-28T01:26:14.675Z,99.90
2022-09-28T01:28:44.045Z,99.90
2022-09-28T01:31:13.423Z,99.90
2022-09-28T01:34:03.936Z,99.90
2022-09-28T01:36:36.829Z,99.90
2022-09-28T01:39:12.673Z,99.90
2022-09-28T01:41:42.547Z,99.90
2022-09-28T01:44:14.938Z,99.90
2022-09-28T01:46:45.505Z,99.90
2022-09-28T01:49:24.394Z,99.90
2022-09-28T01:52:20.178Z,99.90
2022-09-28T01:54:53.653Z,99.90
2022-09-28T01:57:53.231Z,99.90
2022-09-28T02:00:21.696Z,99.90
2022-09-28T02:03:46.648Z,99.90
2022-09-28T02:06:21.175Z,99.90
2022-09-28T02:08:56.156Z,99.90
2022-09-28T02:11:23.711Z,99.90
2022-09-28T02:14:01.692Z,99.90
2022-09-28T02:16:46.134Z,99.90
2022-09-28T02:19:19.739Z,99.90
2022-09-28T02:22:06.733Z,99.90
2022-09-28T02:24:53.623Z,99.90
2022-09-28T02:27:54.184Z,99.90
2022-09-28T02:30:21.084Z,99.90
2022-09-28T02:32:51.242Z,99.90
2022-09-28T02:35:19.345Z,99.90
2022-09-28T02:37:47.106Z,99.90
2022-09-28T02:40:22.303Z,99.90
2022-09-28T02:43:14.975Z,99.90
2022-09-28T02:46:08.602Z,99.90
2022-09-28T02:49:21.292Z,99.90
2022-09-28T02:52:39.386Z,99.90
2022-09-28T02:55:29.125Z,99.90
2022-09-28T02:58:34.212Z,99.90
2022-09-28T03:01:28.861Z,99.90
2022-09-28T03:04:23.089Z,99.90
2022-09-28T03:07:31.964Z,99.90
2022-09-28T03:10:43.676Z,99.90
2022-09-28T03:13:12.245Z,99.90
2022-09-28T03:15:40.708Z,99.90
2022-09-28T03:18:08.462Z,99.90
2022-09-28T03:20:35.425Z,99.90
2022-09-28T03:25:49.618Z,99.90
2022-09-28T03:28:17.296Z,99.90
2022-09-28T03:30:44.161Z,99.90
2022-09-28T03:33:11.093Z,99.90
2022-09-28T03:35:37.933Z,99.90
2022-09-28T03:38:04.819Z,99.90
2022-09-28T03:40:31.866Z,99.90
2022-09-28T03:43:00.695Z,99.90
2022-09-28T03:45:27.768Z,99.90
2022-09-28T03:47:54.791Z,99.90
2022-09-28T03:50:21.976Z,99.90
2022-09-28T03:52:48.877Z,99.90
2022-09-28T03:55:15.839Z,99.90
2022-09-28T03:57:42.817Z,99.90
2022-09-28T04:00:10.459Z,99.90
2022-09-28T04:02:37.393Z,99.90
2022-09-28T04:05:04.555Z,99.90
2022-09-28T04:07:31.437Z,99.90
2022-09-28T04:09:58.370Z,99.90
2022-09-28T04:12:25.330Z,99.90
2022-09-28T04:14:52.339Z,99.90
2022-09-28T04:17:19.390Z,99.90
2022-09-28T04:19:47.430Z,99.90
2022-09-28T04:22:14.357Z,99.90
2022-09-28T04:24:43.551Z,99.90
2022-09-28T04:27:29.099Z,99.90
2022-09-28T04:29:56.009Z,99.90
2022-09-28T04:32:23.063Z,99.90
2022-09-28T04:34:49.897Z,99.90
2022-09-28T04:37:16.768Z,99.90
2022-09-28T04:39:47.594Z,99.90
2022-09-28T04:42:15.942Z,99.90
2022-09-28T04:44:42.818Z,99.90
2022-09-28T04:47:10.157Z,99.90
2022-09-28T04:49:38.442Z,99.90
2022-09-28T04:52:06.357Z,99.90
2022-09-28T04:54:33.337Z,99.90
2022-09-28T04:57:00.301Z,99.90
2022-09-28T04:59:27.187Z,99.90
2022-09-28T05:01:54.272Z,99.90
2022-09-28T05:04:25.813Z,99.90
2022-09-28T05:06:53.251Z,99.90
2022-09-28T05:09:20.129Z,99.90
2022-09-28T05:11:49.763Z,99.90
2022-09-28T05:14:16.834Z,99.90
2022-09-28T05:16:44.947Z,99.90
2022-09-28T05:19:12.575Z,99.90
2022-09-28T05:21:39.793Z,99.90
2022-09-28T05:24:07.820Z,99.90
2022-09-28T05:26:35.120Z,99.90
2022-09-28T05:29:02.189Z,99.90
2022-09-28T05:31:29.191Z,99.90
2022-09-28T05:33:56.170Z,99.90
2022-09-28T05:36:24.040Z,99.90
2022-09-28T05:38:51.275Z,99.90
2022-09-28T05:41:18.274Z,99.90
2022-09-28T05:43:45.878Z,99.90
2022-09-28T05:46:13.255Z,99.90
2022-09-28T05:48:40.274Z,99.90
2022-09-28T05:51:07.292Z,99.90
2022-09-28T05:53:34.265Z,99.90
2022-09-28T05:56:01.632Z,99.90
2022-09-28T05:58:30.753Z,99.90
2022-09-28T06:00:58.372Z,99.90
2022-09-28T06:03:28.165Z,99.90
2022-09-28T06:05:55.218Z,99.90
2022-09-28T06:08:22.349Z,99.90
2022-09-28T06:10:49.365Z,99.90
2022-09-28T06:13:16.282Z,99.90
2022-09-28T06:15:44.986Z,99.90
2022-09-28T06:18:17.127Z,99.90
2022-09-28T06:20:44.249Z,99.90
2022-09-28T06:23:12.768Z,99.90
2022-09-28T06:25:39.794Z,99.90
2022-09-28T06:28:12.059Z,99.90
2022-09-28T06:30:40.171Z,99.90
2022-09-28T06:33:10.034Z,99.90
2022-09-28T06:35:37.002Z,99.90
2022-09-28T06:38:04.269Z,99.90
2022-09-28T06:40:31.315Z,99.90
2022-09-28T06:43:03.445Z,99.90
2022-09-28T06:45:31.023Z,99.90
2022-09-28T06:48:00.242Z,99.90
2022-09-28T06:50:31.175Z,99.90
2022-09-28T06:52:58.893Z,99.90
2022-09-28T06:55:26.086Z,99.90
2022-09-28T06:58:01.296Z,99.90
2022-09-28T07:00:29.736Z,99.90
2022-09-28T07:02:56.953Z,99.90
2022-09-28T07:05:26.985Z,99.90
2022-09-28T07:07:55.376Z,99.90
2022-09-28T07:10:27.873Z,99.90
2022-09-28T07:12:56.767Z,99.90
2022-09-28T07:15:25.076Z,99.90
2022-09-28T07:18:03.050Z,99.90
2022-09-28T07:20:31.089Z,99.90
2022-09-28T07:23:10.927Z,99.90
2022-09-28T07:25:47.972Z,99.90
2022-09-28T07:28:15.823Z,99.90
2022-09-28T07:30:44.968Z,99.90
2022-09-28T07:33:14.662Z,99.90
2022-09-28T07:35:42.512Z,99.90
2022-09-28T07:38:10.607Z,99.90
2022-09-28T07:40:56.449Z,99.90
2022-09-28T07:43:23.433Z,99.90
2022-09-28T07:45:55.794Z,99.90
2022-09-28T07:48:23.223Z,99.90
2022-09-28T07:50:56.969Z,99.90
2022-09-28T07:53:25.367Z,99.90
2022-09-28T07:55:57.696Z,99.90
2022-09-28T07:58:24.676Z,97.40
2022-09-28T08:00:51.650Z,96.10
2022-09-28T08:03:19.905Z,95.40
2022-09-28T08:05:47.469Z,95.80
2022-09-28T08:08:15.317Z,96.60
2022-09-28T08:10:47.239Z,97.30
2022-09-28T08:13:15.340Z,97.50
2022-09-28T08:15:42.812Z,98.00
2022-09-28T08:18:10.356Z,97.20
2022-09-28T08:20:56.229Z,97.30
2022-09-28T08:23:23.748Z,96.30
2022-09-28T08:25:54.163Z,95.10
2022-09-28T08:28:22.679Z,94.00
2022-09-28T08:30:50.575Z,92.60
2022-09-28T08:33:20.336Z,93.70
2022-09-28T08:35:47.665Z,94.90
2022-09-28T08:38:15.372Z,93.60
2022-09-28T08:41:09.885Z,93.50
2022-09-28T08:44:11.137Z,94.00
2022-09-28T08:46:43.666Z,94.00
2022-09-28T08:49:33.592Z,92.00
2022-09-28T08:52:19.491Z,93.60
2022-09-28T08:55:18.814Z,94.40
2022-09-28T08:57:58.879Z,93.50
2022-09-28T09:00:49.094Z,92.10
2022-09-28T09:03:23.967Z,91.10
2022-09-28T09:06:08.697Z,92.30
2022-09-28T09:09:06.628Z,92.40
2022-09-28T09:12:07.802Z,93.50
2022-09-28T09:15:07.620Z,93.80
2022-09-28T09:18:19.999Z,94.60
2022-09-28T09:20:59.094Z,92.20
2022-09-28T09:23:37.594Z,92.40
2022-09-28T09:26:24.913Z,92.90
2022-09-28T09:29:26.716Z,90.70
2022-09-28T09:32:18.459Z,87.50
2022-09-28T09:35:37.706Z,82.70
2022-09-28T09:39:00.207Z,72.10
2022-09-28T09:42:00.016Z,64.40
2022-09-28T09:45:09.685Z,57.60
2022-09-28T09:47:49.188Z,57.80
2022-09-28T09:50:30.271Z,56.30
2022-09-28T09:53:03.484Z,46.50
2022-09-28T09:55:40.756Z,48.10
2022-09-28T09:58:16.146Z,45.80
2022-09-28T10:00:45.780Z,44.80
2022-09-28T10:03:34.439Z,47.00
2022-09-28T10:06:10.233Z,43.90
2022-09-28T10:08:49.079Z,38.50
2022-09-28T10:11:22.508Z,30.70
2022-09-28T10:13:49.655Z,32.40
2022-09-28T10:16:18.855Z,26.30
2022-09-28T10:18:45.983Z,21.60
2022-09-28T10:21:15.108Z,24.30
2022-09-28T10:23:42.466Z,23.30
2022-09-28T10:26:33.859Z,31.20
2022-09-28T10:29:06.829Z,29.20
2022-09-28T10:31:49.054Z,31.50
2022-09-28T10:34:19.060Z,35.00
2022-09-28T10:37:03.344Z,41.00
2022-09-28T10:39:46.223Z,36.40
2022-09-28T10:42:20.158Z,36.10
2022-09-28T10:45:01.446Z,38.00
2022-09-28T10:47:33.509Z,34.60
2022-09-28T10:50:01.246Z,32.80
2022-09-28T10:52:42.743Z,29.30
2022-09-28T10:55:26.803Z,30.60
2022-09-28T10:57:53.855Z,30.10
2022-09-28T11:00:31.308Z,31.10
2022-09-28T11:02:59.108Z,28.70
2022-09-28T11:05:28.022Z,30.30
2022-09-28T11:07:57.071Z,31.80
2022-09-28T11:10:30.487Z,29.40
2022-09-28T11:12:57.824Z,27.20
2022-09-28T11:15:31.575Z,29.40
2022-09-28T11:18:20.666Z,30.20
2022-09-28T11:20:49.306Z,25.50
2022-09-28T11:23:20.725Z,23.50
2022-09-28T11:26:08.085Z,25.60
2022-09-28T11:28:37.813Z,23.50
2022-09-28T11:31:07.298Z,25.60
2022-09-28T11:33:37.751Z,22.10
2022-09-28T11:36:48.846Z,22.50
2022-09-28T11:39:40.998Z,26.60
2022-09-28T11:42:43.374Z,24.70
2022-09-28T11:46:08.405Z,22.40
2022-09-28T11:49:18.357Z,20.20
2022-09-28T11:51:48.592Z,25.00
2022-09-28T11:54:48.313Z,23.50
2022-09-28T11:57:21.370Z,25.00
2022-09-28T11:59:59.000Z,25.40
2022-09-28T12:02:58.424Z,26.50
2022-09-28T12:05:32.412Z,25.80
2022-09-28T12:08:03.258Z,24.70
2022-09-28T12:10:57.529Z,19.50
2022-09-28T12:13:38.133Z,18.90
2022-09-28T12:16:46.865Z,22.00
2022-09-28T12:19:26.405Z,23.30
2022-09-28T12:22:01.037Z,25.80
2022-09-28T12:24:36.824Z,30.00
2022-09-28T12:27:20.883Z,29.80
2022-09-28T12:30:14.173Z,28.70
2022-09-28T12:33:15.529Z,25.40
2022-09-28T12:36:21.219Z,26.30
2022-09-28T12:39:35.496Z,27.70
2022-09-28T12:42:55.866Z,29.30
2022-09-28T12:46:13.149Z,30.00
2022-09-28T13:11:27.124Z,13.30
2022-09-28T13:14:42.811Z,13.20
2022-09-28T13:17:41.137Z,12.80
2022-09-28T13:20:44.965Z,11.20
2022-09-28T13:23:44.943Z,11.40
2022-09-28T13:26:40.616Z,14.60
2022-09-28T13:29:18.491Z,15.20
2022-09-28T13:31:51.878Z,13.80
2022-09-28T13:34:25.043Z,13.20
2022-09-28T13:37:30.378Z,12.10
2022-09-28T13:39:59.256Z,11.50
2022-09-28T13:43:06.818Z,10.40
2022-09-28T13:45:53.524Z,11.50
2022-09-28T13:48:34.087Z,9.30
2022-09-28T13:51:26.298Z,10.40
2022-09-28T13:54:16.506Z,11.70
2022-09-28T13:57:10.498Z,10.10
2022-09-28T13:59:57.929Z,8.00
2022-09-28T14:02:44.520Z,9.00
2022-09-28T14:05:34.382Z,11.60
2022-09-28T14:08:34.806Z,13.80
2022-09-28T14:11:52.045Z,13.70
2022-09-28T14:14:29.415Z,13.60
2022-09-28T14:17:41.532Z,14.80
2022-09-28T14:20:15.647Z,14.60
2022-09-28T14:23:21.123Z,13.60
2022-09-28T14:26:42.273Z,14.20
2022-09-28T14:29:29.307Z,14.40
2022-09-28T14:32:25.284Z,11.20
2022-09-28T14:35:02.383Z,11.60
2022-09-28T14:37:52.654Z,12.90
2022-09-28T14:40:49.962Z,14.00
2022-09-28T14:43:47.360Z,11.70
2022-09-28T14:46:38.576Z,11.80
2022-09-28T14:49:37.783Z,9.50
2022-09-28T14:52:04.704Z,10.90
2022-09-28T14:54:53.578Z,12.40
2022-09-28T14:57:31.324Z,10.70
2022-09-28T14:59:59.818Z,13.60
2022-09-28T15:02:36.333Z,13.40
2022-09-28T15:05:20.377Z,15.60
2022-09-28T15:07:51.866Z,16.60
2022-09-28T15:10:49.337Z,15.60
2022-09-28T15:13:20.870Z,16.20
2022-09-28T15:16:11.616Z,15.60
2022-09-28T15:19:18.734Z,16.00
2022-09-28T15:21:47.763Z,19.30
2022-09-28T15:24:33.247Z,18.60
2022-09-28T15:27:19.037Z,19.80
2022-09-28T15:29:59.768Z,21.50
2022-09-28T15:32:28.609Z,19.70
2022-09-28T15:34:57.216Z,21.00
2022-09-28T15:37:40.243Z,22.20
2022-09-28T15:40:15.414Z,24.10
2022-09-28T15:42:43.655Z,25.00
2022-09-28T15:45:40.711Z,27.90
2022-09-28T15:48:31.129Z,29.80
2022-09-28T15:51:12.816Z,35.30
2022-09-28T15:54:21.636Z,43.00
2022-09-28T15:57:02.689Z,46.80
2022-09-28T15:59:39.688Z,49.90
2022-09-28T16:02:19.178Z,51.00
2022-09-28T16:04:53.083Z,54.80
2022-09-28T16:07:40.539Z,54.90
2022-09-28T16:10:36.032Z,55.20
2022-09-28T16:13:15.672Z,48.70
2022-09-28T16:15:43.286Z,49.40
2022-09-28T16:18:20.637Z,49.90
2022-09-28T16:20:51.316Z,52.60
2022-09-28T16:23:37.083Z,53.70
2022-09-28T16:26:13.443Z,57.80
2022-09-28T16:28:51.948Z,59.40
2022-09-28T16:31:27.207Z,62.20
2022-09-28T16:34:01.877Z,63.60
2022-09-28T16:36:42.783Z,65.60
2022-09-28T16:39:11.830Z,64.80
2022-09-28T16:41:41.581Z,63.80
2022-09-28T16:44:16.867Z,66.70
2022-09-28T16:46:45.287Z,69.00
2022-09-28T16:49:19.176Z,70.70
2022-09-28T16:51:49.586Z,71.40
2022-09-28T16:54:41.893Z,73.30
2022-09-28T16:57:11.922Z,77.30
2022-09-28T16:59:39.271Z,81.80
2022-09-28T17:05:13.553Z,83.00
2022-09-28T17:07:40.944Z,85.20
2022-09-28T17:10:56.036Z,84.70
2022-09-28T17:13:36.126Z,89.70
2022-09-28T17:16:08.566Z,91.60
2022-09-28T17:18:39.442Z,91.00
2022-09-28T17:21:21.043Z,92.60
2022-09-28T17:23:50.099Z,93.50
2022-09-28T17:26:33.911Z,94.20
2022-09-28T17:29:02.552Z,94.80
2022-09-28T17:31:30.669Z,94.60
2022-09-28T17:33:58.281Z,94.50
2022-09-28T17:36:26.966Z,93.70
2022-09-28T17:38:54.405Z,93.70
2022-09-28T17:41:21.712Z,92.80
2022-09-28T17:43:50.098Z,92.90
2022-09-28T17:46:39.493Z,93.10
2022-09-28T17:49:10.390Z,93.70
2022-09-28T17:51:37.979Z,93.80
2022-09-28T17:54:07.810Z,94.10
2022-09-28T17:56:36.007Z,94.40
2022-09-28T17:59:06.480Z,94.70
2022-09-28T18:01:34.927Z,94.60
2022-09-28T18:04:04.021Z,94.90
2022-09-28T18:06:33.691Z,95.20
2022-09-28T18:09:02.989Z,95.40
2022-09-28T18:11:31.696Z,95.30
2022-09-28T18:13:59.039Z,94.80
2022-09-28T18:16:28.946Z,95.00
2022-09-28T18:18:57.058Z,94.70
2022-09-28T18:21:24.076Z,94.60
2022-09-28T18:23:51.677Z,94.90
2022-09-28T18:26:21.638Z,94.90
2022-09-28T18:28:48.789Z,95.30
2022-09-28T18:31:19.315Z,95.80
2022-09-28T18:33:46.676Z,95.60
2022-09-28T18:36:13.802Z,96.20
2022-09-28T18:38:42.152Z,96.20
2022-09-28T18:41:16.187Z,96.00
2022-09-28T18:43:50.185Z,95.80
2022-09-28T18:46:18.461Z,95.90
2022-09-28T18:48:47.817Z,95.80
2022-09-28T18:51:15.364Z,95.80
2022-09-28T18:53:42.777Z,95.90
2022-09-28T18:56:11.860Z,95.70
2022-09-28T18:58:40.471Z,95.30
2022-09-28T19:01:29.479Z,95.00
2022-09-28T19:04:02.173Z,94.80
2022-09-28T19:06:30.340Z,95.20
2022-09-28T19:08:58.352Z,94.90
2022-09-28T19:11:27.030Z,94.80
2022-09-28T19:13:55.429Z,95.40
2022-09-28T19:16:25.161Z,95.90
2022-09-28T19:18:53.828Z,95.90
2022-09-28T19:21:22.261Z,96.40
2022-09-28T19:23:50.119Z,97.60
2022-09-28T19:26:23.202Z,97.80
2022-09-28T19:28:51.771Z,98.40
2022-09-28T19:31:19.297Z,99.40
2022-09-28T19:33:46.937Z,99.70
2022-09-28T19:36:19.769Z,99.80
2022-09-28T19:38:47.006Z,99.90
2022-09-28T19:41:39.287Z,99.90
2022-09-28T19:44:27.668Z,99.90
2022-09-28T19:47:10.196Z,99.90
2022-09-28T19:49:39.548Z,99.90
2022-09-28T19:52:16.370Z,99.90
2022-09-28T19:54:58.517Z,99.90
2022-09-28T19:57:31.391Z,99.90
2022-09-28T20:00:02.412Z,99.90
2022-09-28T20:02:30.433Z,99.90
2022-09-28T20:04:57.684Z,99.90
2022-09-28T20:07:24.966Z,99.90
2022-09-28T20:09:52.138Z,99.90
2022-09-28T20:12:19.661Z,99.90
2022-09-28T20:14:46.783Z,99.90
2022-09-28T20:17:13.709Z,99.90
2022-09-28T20:19:41.063Z,99.90
2022-09-28T20:22:11.745Z,99.90
2022-09-28T20:24:38.712Z,99.90
2022-09-28T20:27:05.884Z,99.90
2022-09-28T20:29:33.604Z,99.90
2022-09-28T20:32:01.650Z,99.90
2022-09-28T20:34:28.625Z,99.90
2022-09-28T20:36:56.124Z,99.90
2022-09-28T20:39:23.006Z,99.90
2022-09-28T20:41:50.638Z,99.90
2022-09-28T20:44:17.734Z,99.90
2022-09-28T20:46:45.137Z,99.90
2022-09-28T20:49:12.831Z,99.90
2022-09-28T20:51:39.710Z,99.90
2022-09-28T20:54:06.797Z,99.90
2022-09-28T20:56:37.827Z,99.90
2022-09-28T20:59:09.837Z,99.90
2022-09-28T21:01:37.066Z,99.90
2022-09-28T21:04:06.715Z,99.90
2022-09-28T21:06:36.036Z,99.90
2022-09-28T21:09:07.940Z,99.90
2022-09-28T21:11:38.720Z,99.90
2022-09-28T21:14:07.098Z,99.90
2022-09-28T21:16:35.227Z,99.90
2022-09-28T21:19:03.450Z,99.90
2022-09-28T21:21:30.428Z,99.90
2022-09-28T21:23:58.201Z,99.90
2022-09-28T21:26:28.336Z,99.90
2022-09-28T21:29:07.143Z,99.90
2022-09-28T21:31:42.638Z,99.90
2022-09-28T21:34:13.961Z,99.90
2022-09-28T21:36:43.679Z,99.90
2022-09-28T21:39:10.882Z,99.90
2022-09-28T21:41:37.836Z,99.90
2022-09-28T21:44:05.184Z,99.90
2022-09-28T21:46:35.535Z,99.90
2022-09-28T21:49:04.036Z,99.90
2022-09-28T21:51:31.559Z,99.90
2022-09-28T21:53:58.903Z,99.90
2022-09-28T21:56:26.922Z,99.90
2022-09-28T21:58:53.868Z,99.90
2022-09-28T22:01:23.606Z,99.90
2022-09-28T22:03:53.773Z,99.90
2022-09-28T22:06:23.388Z,99.90
2022-09-28T22:08:51.144Z,99.90
2022-09-28T22:11:23.375Z,99.90
2022-09-28T22:13:56.748Z,99.90
2022-09-28T22:16:26.695Z,99.90
2022-09-28T22:18:54.248Z,99.90
2022-09-28T22:21:32.894Z,99.90
2022-09-28T22:24:01.432Z,99.90
2022-09-28T22:26:30.281Z,99.90
2022-09-28T22:28:59.873Z,99.90
2022-09-28T22:31:30.232Z,99.90
2022-09-28T22:33:57.651Z,99.90
2022-09-28T22:36:25.979Z,99.90
2022-09-28T22:38:55.022Z,99.90
2022-09-28T22:41:22.426Z,99.90
2022-09-28T22:43:51.013Z,99.90
2022-09-28T22:46:23.500Z,99.90
2022-09-28T22:48:55.890Z,99.90
2022-09-28T22:51:24.257Z,99.90
2022-09-28T22:53:51.633Z,99.90
2022-09-28T22:56:19.346Z,99.90
2022-09-28T22:58:46.830Z,99.90
2022-09-28T23:01:19.348Z,99.90
2022-09-28T23:03:46.827Z,99.90
2022-09-28T23:06:16.738Z,99.90
2022-09-28T23:08:44.674Z,99.90
2022-09-28T23:11:11.951Z,99.90
2022-09-28T23:13:39.244Z,99.90
2022-09-28T23:16:08.468Z,99.90
2022-09-28T23:18:37.804Z,99.90
2022-09-28T23:21:07.533Z,99.90
2022-09-28T23:23:34.695Z,99.90
2022-09-28T23:26:19.918Z,99.90
2022-09-28T23:28:47.011Z,99.90
2022-09-28T23:31:26.158Z,99.90
2022-09-28T23:34:01.432Z,99.90
2022-09-28T23:36:28.731Z,99.90
2022-09-28T23:38:56.561Z,99.90
2022-09-28T23:41:23.609Z,99.90
2022-09-28T23:43:50.480Z,99.90
2022-09-28T23:46:20.734Z,99.90
2022-09-28T23:48:48.618Z,99.90
2022-09-28T23:51:15.566Z,99.90
2022-09-28T23:53:43.399Z,99.90
2022-09-28T23:56:10.525Z,99.90
2022-09-28T23:58:37.358Z,99.90
